createdAt,value
2019-03-08T08:12:59.021Z,82.17
2019-03-08T08:13:59.192Z,83.14
2019-03-08T08:14:59.331Z,82.93
2019-03-08T08:15:59.602Z,82.38
2019-03-08T08:16:59.759Z,81.41
2019-03-08T08:18:01.056Z,80.69
2019-03-08T08:19:01.303Z,81.37
2019-03-08T08:20:01.414Z,81.07
2019-03-08T08:21:01.665Z,81.48
2019-03-08T08:22:01.803Z,80.34
2019-03-08T08:23:01.959Z,80.20
2019-03-08T08:24:02.085Z,78.72
2019-03-08T08:25:02.212Z,79.20
2019-03-08T08:26:03.341Z,76.83
2019-03-08T08:27:02.609Z,76.97
2019-03-08T08:28:02.724Z,79.75
2019-03-08T08:29:02.899Z,79.86
2019-03-08T08:30:03.038Z,79.34
2019-03-08T08:31:03.209Z,79.55
2019-03-08T08:32:03.381Z,79.44
2019-03-08T08:33:03.672Z,78.97
2019-03-08T08:34:03.766Z,78.34
2019-03-08T08:35:03.961Z,79.48
2019-03-08T08:36:04.114Z,79.38
2019-03-08T08:37:04.309Z,80.41
2019-03-08T08:38:04.510Z,80.58
2019-03-08T08:39:04.687Z,78.72
2019-03-08T08:40:04.865Z,79.55
2019-03-08T08:41:05.014Z,79.93
2019-03-08T08:42:05.201Z,80.00
2019-03-08T08:43:05.401Z,79.11
2019-03-08T08:44:05.567Z,81.31
2019-03-08T08:45:05.761Z,81.41
2019-03-08T08:46:05.923Z,81.86
2019-03-08T08:47:06.106Z,83.78
2019-03-08T08:48:06.265Z,82.96
2019-03-08T08:49:06.427Z,82.03
2019-03-08T08:50:06.569Z,82.96
2019-03-08T08:51:06.694Z,83.17
2019-03-08T08:52:06.856Z,80.96
2019-03-08T08:53:07.008Z,81.37
2019-03-08T08:54:07.176Z,80.76
2019-03-08T08:55:07.349Z,80.65
2019-03-08T08:56:07.448Z,80.62
2019-03-08T08:57:07.747Z,79.00
2019-03-08T08:58:07.877Z,78.62
2019-03-08T08:59:08.136Z,76.83
2019-03-08T09:00:08.305Z,76.31
2019-03-08T09:01:08.474Z,73.64
2019-03-08T09:02:08.714Z,71.28
2019-03-08T09:03:08.995Z,71.89
2019-03-08T09:04:09.103Z,73.09
2019-03-08T09:05:09.243Z,75.90
2019-03-08T09:06:09.436Z,76.45
2019-03-08T09:07:09.548Z,73.95
2019-03-08T09:08:09.695Z,76.28
2019-03-08T09:09:09.879Z,75.87
2019-03-08T09:10:09.989Z,76.28
2019-03-08T09:11:10.180Z,75.15
2019-03-08T09:12:10.316Z,75.77
2019-03-08T09:13:10.536Z,76.70
2019-03-08T09:14:10.699Z,76.70
2019-03-08T09:15:10.870Z,76.90
2019-03-08T09:16:11.035Z,75.56
2019-03-08T09:17:11.293Z,68.57
2019-03-08T09:18:11.463Z,69.94
2019-03-08T09:19:11.629Z,69.67
2019-03-08T09:20:11.812Z,70.56
2019-03-08T09:21:11.994Z,72.34
2019-03-08T09:22:12.211Z,72.96
2019-03-08T09:23:12.366Z,71.79
2019-03-08T09:24:12.556Z,72.47
2019-03-08T09:25:12.714Z,67.93
2019-03-08T09:26:12.869Z,69.87
2019-03-08T09:27:13.129Z,70.83
2019-03-08T09:28:13.259Z,70.59
2019-03-08T09:29:13.439Z,68.05
2019-03-08T09:30:13.619Z,70.76
2019-03-08T09:31:13.758Z,71.89
2019-03-08T09:32:13.957Z,71.07
2019-03-08T09:33:14.162Z,70.35
2019-03-08T09:34:14.312Z,69.23
2019-03-08T09:35:14.480Z,68.95
2019-03-08T09:36:14.664Z,69.80
2019-03-08T09:37:14.834Z,69.80
2019-03-08T09:38:15.005Z,70.21
2019-03-08T09:39:15.186Z,73.13
2019-03-08T09:40:15.361Z,71.62
2019-03-08T09:41:15.481Z,73.40
2019-03-08T09:42:15.657Z,73.54
2019-03-08T09:43:15.836Z,73.26
2019-03-08T09:44:16.003Z,73.78
2019-03-08T09:45:16.160Z,73.78
2019-03-08T09:46:17.325Z,74.22
2019-03-08T09:47:16.460Z,76.18
2019-03-08T09:48:16.637Z,74.60
2019-03-08T09:49:16.787Z,73.78
2019-03-08T09:50:16.936Z,71.55
2019-03-08T09:51:17.101Z,70.52
2019-03-08T09:52:17.263Z,71.66
2019-03-08T09:53:17.470Z,71.45
2019-03-08T09:54:18.356Z,71.14
2019-03-08T09:55:18.794Z,73.02
2019-03-08T09:56:17.960Z,71.92
2019-03-08T09:57:18.123Z,71.82
2019-03-08T09:58:18.315Z,71.96
2019-03-08T09:59:18.465Z,71.92
2019-03-08T10:00:18.616Z,69.56
2019-03-08T10:01:18.808Z,70.62
2019-03-08T10:02:19.001Z,71.89
2019-03-08T10:03:19.206Z,71.69
2019-03-08T10:04:19.370Z,71.17
2019-03-08T10:05:19.552Z,71.82
2019-03-08T10:06:19.705Z,73.30
2019-03-08T10:07:19.881Z,73.19
2019-03-08T10:08:20.021Z,73.23
2019-03-08T10:09:20.160Z,72.51
2019-03-08T10:10:20.329Z,73.54
2019-03-08T10:11:20.496Z,73.33
2019-03-08T10:12:20.659Z,73.74
2019-03-08T10:13:20.804Z,74.46
2019-03-08T10:14:21.049Z,74.05
2019-03-08T10:15:21.228Z,75.08
2019-03-08T10:16:21.420Z,72.81
2019-03-08T10:17:21.598Z,69.53
2019-03-08T10:18:21.768Z,69.87
2019-03-08T10:19:21.939Z,67.86
2019-03-08T10:20:22.111Z,65.89
2019-03-08T10:21:22.326Z,61.47
2019-03-08T10:22:22.410Z,59.85
2019-03-08T10:23:22.617Z,56.84
2019-03-08T10:24:22.779Z,57.04
2019-03-08T10:25:22.955Z,60.72
2019-03-08T10:26:23.173Z,63.54
2019-03-08T10:27:23.375Z,62.43
2019-03-08T10:28:23.552Z,63.90
2019-03-08T10:29:23.716Z,66.19
2019-03-08T10:30:23.895Z,64.64
2019-03-08T10:31:24.095Z,67.21
2019-03-08T10:32:24.273Z,67.49
2019-03-08T10:33:24.440Z,64.67
2019-03-08T10:34:24.649Z,65.56
2019-03-08T10:35:24.824Z,68.61
2019-03-08T10:36:25.064Z,68.10
2019-03-08T10:37:25.247Z,67.51
2019-03-08T10:38:25.474Z,67.30
2019-03-08T10:39:25.721Z,67.89
2019-03-08T10:40:25.889Z,66.25
2019-03-08T10:41:26.175Z,65.44
2019-03-08T10:42:26.214Z,62.11
2019-03-08T10:43:26.402Z,62.14
2019-03-08T10:44:27.596Z,62.17
2019-03-08T10:45:26.725Z,61.88
2019-03-08T10:46:26.932Z,60.88
2019-03-08T10:47:27.094Z,63.25
2019-03-08T10:48:27.294Z,65.70
2019-03-08T10:49:27.524Z,65.83
2019-03-08T10:50:27.730Z,68.95
2019-03-08T10:51:27.898Z,68.67
2019-03-08T10:52:29.123Z,68.67
2019-03-08T10:53:28.280Z,70.83
2019-03-08T10:54:28.471Z,69.42
2019-03-08T10:55:28.672Z,71.07
2019-03-08T10:56:28.883Z,69.25
2019-03-08T10:57:30.134Z,69.76
2019-03-08T10:58:29.311Z,70.28
2019-03-08T10:59:31.356Z,69.84
2019-03-08T11:00:29.629Z,70.38
2019-03-08T11:01:29.827Z,69.76
2019-03-08T11:02:30.034Z,68.94
2019-03-08T11:03:30.163Z,71.10
2019-03-08T11:04:30.356Z,71.24
2019-03-08T11:05:30.543Z,70.93
2019-03-08T11:06:30.727Z,70.62
2019-03-08T11:07:30.923Z,71.75
2019-03-08T11:08:31.116Z,71.78
2019-03-08T11:09:31.341Z,70.96
2019-03-08T11:10:31.450Z,72.78
2019-03-08T11:11:31.677Z,69.90
2019-03-08T11:12:31.878Z,70.76
2019-03-08T11:13:32.134Z,71.89
2019-03-08T11:14:32.245Z,71.72
2019-03-08T11:15:32.451Z,70.58
2019-03-08T11:16:32.671Z,72.30
2019-03-08T11:17:32.877Z,72.44
2019-03-08T11:18:33.099Z,72.03
2019-03-08T11:19:33.286Z,72.13
2019-03-08T11:20:33.481Z,72.96
2019-03-08T11:21:33.651Z,72.13
2019-03-08T11:22:34.886Z,73.57
2019-03-08T11:23:34.080Z,72.03
2019-03-08T11:24:34.239Z,72.20
2019-03-08T11:25:35.265Z,72.33
2019-03-08T11:26:35.667Z,72.09
2019-03-08T11:27:34.818Z,71.65
2019-03-08T11:28:35.049Z,71.86
2019-03-08T11:29:35.257Z,71.41
2019-03-08T11:30:35.449Z,71.17
2019-03-08T11:31:35.645Z,68.80
2019-03-08T11:32:36.870Z,68.08
2019-03-08T11:33:36.027Z,68.46
2019-03-08T11:34:36.279Z,67.20
2019-03-08T11:35:36.680Z,66.66
2019-03-08T11:36:37.618Z,64.57
2019-03-08T11:37:36.761Z,66.73
2019-03-08T11:38:36.947Z,64.26
2019-03-08T11:39:37.134Z,66.07
2019-03-08T11:40:37.321Z,65.41
2019-03-08T11:41:37.537Z,68.91
2019-03-08T11:42:37.706Z,71.20
2019-03-08T11:43:37.898Z,71.96
2019-03-08T11:44:38.085Z,71.89
2019-03-08T11:45:38.312Z,75.53
2019-03-08T11:46:38.597Z,79.17
2019-03-08T11:47:38.631Z,79.80
2019-03-08T11:48:38.833Z,83.28
2019-03-08T11:49:39.082Z,84.25
2019-03-08T11:50:39.212Z,86.77
2019-03-08T11:51:39.293Z,85.80
2019-03-08T11:52:39.523Z,84.56
2019-03-08T11:53:39.729Z,85.66
2019-03-08T11:54:41.079Z,84.38
2019-03-08T11:55:41.062Z,83.34
2019-03-08T11:56:40.194Z,82.62
2019-03-08T11:57:40.350Z,80.93
2019-03-08T11:58:40.525Z,82.40
2019-03-08T11:59:40.730Z,79.00
2019-03-08T12:00:40.884Z,80.27
2019-03-08T12:01:41.032Z,80.00
2019-03-08T12:02:41.215Z,81.13
2019-03-08T12:03:41.388Z,81.81
2019-03-08T12:04:41.609Z,80.93
2019-03-08T12:05:41.786Z,83.77
2019-03-08T12:06:41.947Z,82.26
2019-03-08T12:07:42.122Z,80.72
2019-03-08T12:08:42.283Z,81.79
2019-03-08T12:09:42.552Z,81.58
2019-03-08T12:10:42.594Z,81.48
2019-03-08T12:11:42.775Z,78.66
2019-03-08T12:12:43.299Z,77.45
2019-03-08T12:13:43.076Z,73.19
2019-03-08T12:14:43.278Z,75.15
2019-03-08T12:15:43.463Z,75.18
2019-03-08T12:16:43.638Z,72.65
2019-03-08T12:17:43.769Z,64.92
2019-03-08T12:18:43.943Z,59.21
2019-03-08T12:19:44.124Z,61.16
2019-03-08T12:20:44.353Z,59.22
2019-03-08T12:21:44.543Z,59.55
2019-03-08T12:22:44.718Z,57.79
2019-03-08T12:23:44.909Z,60.03
2019-03-08T12:24:45.117Z,58.80
2019-03-08T12:25:45.337Z,63.85
2019-03-08T12:26:45.541Z,64.27
2019-03-08T12:27:45.720Z,61.94
2019-03-08T12:28:45.919Z,67.21
2019-03-08T12:29:46.109Z,60.19
2019-03-08T12:30:46.326Z,59.25
2019-03-08T12:31:46.482Z,60.54
2019-03-08T12:32:46.683Z,57.44
2019-03-08T12:33:46.863Z,58.44
2019-03-08T12:34:47.029Z,61.88
2019-03-08T12:35:47.245Z,58.28
2019-03-08T12:36:47.495Z,55.02
2019-03-08T12:37:47.670Z,57.17
2019-03-08T12:38:47.880Z,57.39
2019-03-08T12:39:48.114Z,57.67
2019-03-08T12:40:48.346Z,57.13
2019-03-08T12:41:48.520Z,56.04
2019-03-08T12:42:48.702Z,52.46
2019-03-08T12:43:48.895Z,51.50
2019-03-08T12:44:49.118Z,52.08
2019-03-08T12:45:49.346Z,51.60
2019-03-08T12:46:49.559Z,49.47
2019-03-08T12:47:49.759Z,51.62
2019-03-08T12:48:50.311Z,51.90
2019-03-08T12:49:51.149Z,52.36
2019-03-08T12:50:50.334Z,52.46
2019-03-08T12:51:50.555Z,49.74
2019-03-08T12:52:50.722Z,49.41
2019-03-08T12:53:50.907Z,52.99
2019-03-08T12:54:51.140Z,52.25
2019-03-08T12:55:51.300Z,59.61
2019-03-08T12:56:51.500Z,54.79
2019-03-08T12:57:51.690Z,55.26
2019-03-08T12:58:51.870Z,55.15
2019-03-08T12:59:52.048Z,53.77
2019-03-08T13:00:52.226Z,58.98
2019-03-08T13:01:52.433Z,62.07
2019-03-08T13:02:52.657Z,56.68
2019-03-08T13:03:52.859Z,51.39
2019-03-08T13:04:53.069Z,49.71
2019-03-08T13:05:53.321Z,52.53
2019-03-08T13:06:53.529Z,50.74
2019-03-08T13:07:53.659Z,54.87
2019-03-08T13:08:53.842Z,56.37
2019-03-08T13:09:54.066Z,53.11
2019-03-08T13:10:54.245Z,52.10
2019-03-08T13:11:54.431Z,52.35
2019-03-08T13:12:54.618Z,50.42
2019-03-08T13:13:54.814Z,52.05
2019-03-08T13:14:54.981Z,51.44
2019-03-08T13:15:55.152Z,49.28
2019-03-08T13:16:55.337Z,49.64
2019-03-08T13:17:55.556Z,50.23
2019-03-08T13:18:55.778Z,52.15
2019-03-08T13:19:55.973Z,47.87
2019-03-08T13:20:56.174Z,46.49
2019-03-08T13:21:56.382Z,47.41
2019-03-08T13:22:56.472Z,46.12
2019-03-08T13:23:56.656Z,49.11
2019-03-08T13:24:56.817Z,48.13
2019-03-08T13:25:57.007Z,47.22
2019-03-08T13:26:57.168Z,46.08
2019-03-08T13:27:57.313Z,47.90
2019-03-08T13:28:57.496Z,47.41
2019-03-08T13:29:57.725Z,52.08
2019-03-08T13:30:57.884Z,49.30
2019-03-08T13:31:58.067Z,53.78
2019-03-08T13:32:58.243Z,53.83
2019-03-08T13:33:58.381Z,55.87
2019-03-08T13:34:58.600Z,58.40
2019-03-08T13:35:58.815Z,59.86
2019-03-08T13:36:58.993Z,58.64
2019-03-08T13:37:59.186Z,62.26
2019-03-08T13:38:59.365Z,64.10
2019-03-08T13:39:59.540Z,62.56
2019-03-08T13:40:59.839Z,64.64
2019-03-08T13:42:00.006Z,62.18
2019-03-08T13:43:00.203Z,63.65
2019-03-08T13:44:00.735Z,64.26
2019-03-08T13:45:01.616Z,61.93
2019-03-08T13:46:00.793Z,64.60
2019-03-08T13:47:01.011Z,62.48
2019-03-08T13:48:01.211Z,65.25
2019-03-08T13:49:01.430Z,65.45
2019-03-08T13:50:01.635Z,65.14
2019-03-08T13:51:01.865Z,67.65
2019-03-08T13:52:02.112Z,67.44
2019-03-08T13:53:02.193Z,65.08
2019-03-08T13:54:02.386Z,67.33
2019-03-08T13:55:02.573Z,69.49
2019-03-08T13:56:02.768Z,66.61
2019-03-08T13:57:02.984Z,65.08
2019-03-08T13:58:03.193Z,67.57
2019-03-08T13:59:03.373Z,67.26
2019-03-08T14:00:03.560Z,69.94
2019-03-08T14:01:03.775Z,71.37
2019-03-08T14:02:03.962Z,69.32
2019-03-08T14:03:04.183Z,69.35
2019-03-08T14:04:04.376Z,75.18
2019-03-08T14:05:04.534Z,73.26
2019-03-08T14:06:04.660Z,72.68
2019-03-08T14:07:05.810Z,73.19
2019-03-08T14:08:05.024Z,70.08
2019-03-08T14:09:05.196Z,66.06
2019-03-08T14:10:05.353Z,64.92
2019-03-08T14:11:05.537Z,63.19
2019-03-08T14:12:05.689Z,63.54
2019-03-08T14:13:05.901Z,63.37
2019-03-08T14:14:06.090Z,65.25
2019-03-08T14:15:06.236Z,65.04
2019-03-08T14:16:06.427Z,66.22
2019-03-08T14:17:06.596Z,72.00
2019-03-08T14:18:06.830Z,70.36
2019-03-08T14:19:07.036Z,65.37
2019-03-08T14:20:07.264Z,65.25
2019-03-08T14:21:07.439Z,59.05
2019-03-08T14:22:07.599Z,61.12
2019-03-08T14:23:07.819Z,62.14
2019-03-08T14:24:08.046Z,55.87
2019-03-08T14:25:08.254Z,58.05
2019-03-08T14:26:08.495Z,56.96
2019-03-08T14:27:08.575Z,54.49
2019-03-08T14:28:08.810Z,54.21
2019-03-08T14:29:09.031Z,59.80
2019-03-08T14:30:09.222Z,62.21
2019-03-08T14:31:12.478Z,61.76
2019-03-08T14:32:09.658Z,61.82
2019-03-08T14:33:09.838Z,61.33
2019-03-08T14:34:10.802Z,61.49
2019-03-08T14:35:12.230Z,59.95
2019-03-08T14:36:10.376Z,65.32
2019-03-08T14:37:10.504Z,61.21
2019-03-08T14:38:10.715Z,62.14
2019-03-08T14:39:10.915Z,64.73
2019-03-08T14:40:11.154Z,61.44
2019-03-08T14:41:11.349Z,58.91
2019-03-08T14:42:11.602Z,59.83
2019-03-08T14:43:13.136Z,61.99
2019-03-08T14:44:12.991Z,58.50
2019-03-08T14:45:12.146Z,59.45
2019-03-08T14:46:12.341Z,60.35
2019-03-08T14:47:12.502Z,58.39
2019-03-08T14:48:12.658Z,62.30
2019-03-08T14:49:12.852Z,60.03
2019-03-08T14:50:13.022Z,61.17
2019-03-08T14:51:13.849Z,62.71
2019-03-08T14:52:13.430Z,62.48
2019-03-08T14:53:13.611Z,60.52
2019-03-08T14:54:13.761Z,59.57
2019-03-08T14:55:13.929Z,62.45
2019-03-08T14:56:14.115Z,61.32
2019-03-08T14:57:26.390Z,60.29
2019-03-08T14:58:16.579Z,60.11
2019-03-08T14:59:15.349Z,62.37
2019-03-08T15:00:15.866Z,65.32
2019-03-08T15:01:15.020Z,59.98
2019-03-08T15:02:15.217Z,61.00
2019-03-08T15:03:15.379Z,61.57
2019-03-08T15:04:15.542Z,59.20
2019-03-08T15:05:19.209Z,58.86
2019-03-08T15:06:15.878Z,58.00
2019-03-08T15:07:16.045Z,59.08
2019-03-08T15:08:17.709Z,59.38
2019-03-08T15:09:17.340Z,58.80
2019-03-08T15:10:16.530Z,60.26
2019-03-08T15:11:16.716Z,58.34
2019-03-08T15:12:16.954Z,57.93
2019-03-08T15:13:20.198Z,58.64
2019-03-08T15:14:18.191Z,60.63
2019-03-08T15:15:17.347Z,60.93
2019-03-08T15:16:17.539Z,61.52
2019-03-08T15:17:17.754Z,60.91
2019-03-08T15:18:17.907Z,62.24
2019-03-08T15:19:18.072Z,58.80
2019-03-08T15:20:18.268Z,60.03
2019-03-08T15:21:18.484Z,57.28
2019-03-08T15:22:18.636Z,58.03
2019-03-08T15:23:18.806Z,58.90
2019-03-08T15:24:18.979Z,59.13
2019-03-08T15:25:20.162Z,60.16
2019-03-08T15:26:19.357Z,58.62
2019-03-08T15:27:19.477Z,62.45
2019-03-08T15:28:19.642Z,60.08
2019-03-08T15:29:19.831Z,64.19
2019-03-08T15:30:20.018Z,60.80
2019-03-08T15:31:20.224Z,61.93
2019-03-08T15:32:20.399Z,59.50
2019-03-08T15:33:20.564Z,64.53
2019-03-08T15:34:21.428Z,60.21
2019-03-08T15:35:21.959Z,61.21
2019-03-08T15:36:21.117Z,64.47
2019-03-08T15:37:21.304Z,61.00
2019-03-08T15:38:21.505Z,61.72
2019-03-08T15:39:21.721Z,59.06
2019-03-08T15:40:21.899Z,61.00
2019-03-08T15:41:24.984Z,58.83
2019-03-08T15:42:22.325Z,59.88
2019-03-08T15:43:22.505Z,60.11
2019-03-08T15:44:24.463Z,63.78
2019-03-08T15:45:24.865Z,62.62
2019-03-08T15:46:23.450Z,62.52
2019-03-08T15:47:23.987Z,61.60
2019-03-08T15:48:24.450Z,60.72
2019-03-08T15:49:26.666Z,57.41
2019-03-08T15:50:24.634Z,58.10
2019-03-08T15:51:25.267Z,59.28
2019-03-08T15:52:24.938Z,58.18
2019-03-08T15:53:24.130Z,60.19
2019-03-08T15:54:24.285Z,59.16
2019-03-08T15:55:24.424Z,59.39
2019-03-08T15:56:24.601Z,61.44
2019-03-08T15:57:24.812Z,60.73
2019-03-08T15:58:25.024Z,62.30
2019-03-08T15:59:25.234Z,62.51
2019-03-08T16:00:25.412Z,63.84
2019-03-08T16:01:25.610Z,63.56
2019-03-08T16:02:25.781Z,60.75
2019-03-08T16:03:25.947Z,60.27
2019-03-08T16:04:26.147Z,60.37
2019-03-08T16:05:28.220Z,62.74
2019-03-08T16:06:27.453Z,60.27
2019-03-08T16:07:27.275Z,60.45
2019-03-08T16:08:27.724Z,61.40
2019-03-08T16:09:26.958Z,62.33
2019-03-08T16:10:28.098Z,61.79
2019-03-08T16:11:27.221Z,62.33
2019-03-08T16:12:27.378Z,62.33
2019-03-08T16:13:27.502Z,61.81
2019-03-08T16:14:27.786Z,61.30
2019-03-08T16:15:27.914Z,62.30
2019-03-08T16:16:28.068Z,64.18
2019-03-08T16:17:28.216Z,62.53
2019-03-08T16:18:28.466Z,62.23
2019-03-08T16:19:28.633Z,61.91
2019-03-08T16:20:28.767Z,62.53
2019-03-08T16:21:29.027Z,63.15
2019-03-08T16:22:30.162Z,62.33
2019-03-08T16:23:29.314Z,62.53
2019-03-08T16:24:31.218Z,62.51
2019-03-08T16:25:30.619Z,62.43
2019-03-08T16:26:29.878Z,61.91
2019-03-08T16:27:30.008Z,62.43
2019-03-08T16:28:30.128Z,62.43
2019-03-08T16:29:30.254Z,61.09
2019-03-08T16:30:30.481Z,61.40
2019-03-08T16:31:30.683Z,63.25
2019-03-08T16:32:30.884Z,61.99
2019-03-08T16:33:31.014Z,61.91
2019-03-08T16:34:31.147Z,64.59
2019-03-08T16:35:32.067Z,63.46
2019-03-08T16:36:31.491Z,62.23
2019-03-08T16:37:31.595Z,63.46
2019-03-08T16:38:32.762Z,63.67
2019-03-08T16:39:31.925Z,63.49
2019-03-08T16:40:32.106Z,63.49
2019-03-08T16:41:32.263Z,64.72
2019-03-08T16:42:32.426Z,64.62
2019-03-08T16:43:32.588Z,64.62
2019-03-08T16:44:33.756Z,64.62
2019-03-08T16:45:32.879Z,62.25
2019-03-08T16:46:33.032Z,61.84
2019-03-08T16:47:33.292Z,61.94
2019-03-08T16:48:33.451Z,62.35
2019-03-08T16:49:33.577Z,62.25
2019-03-08T16:50:33.702Z,62.87
2019-03-08T16:51:34.490Z,62.25
2019-03-08T16:52:35.163Z,62.56
2019-03-08T16:53:34.248Z,63.39
2019-03-08T16:54:34.486Z,61.94
2019-03-08T16:55:34.637Z,63.39
2019-03-08T16:56:34.759Z,62.28
2019-03-08T16:57:34.895Z,63.52
2019-03-08T16:58:35.017Z,62.59
2019-03-08T16:59:35.141Z,61.98
2019-03-08T17:00:35.416Z,61.56
2019-03-08T17:01:35.536Z,62.59
2019-03-08T17:02:35.667Z,61.98
2019-03-08T17:03:35.809Z,63.72
2019-03-08T17:04:35.940Z,62.52
2019-03-08T17:05:36.166Z,61.77
2019-03-08T17:06:36.352Z,62.07
2019-03-08T17:07:36.509Z,62.59
2019-03-08T17:08:36.633Z,62.49
2019-03-08T17:09:36.793Z,62.62
2019-03-08T17:10:36.986Z,62.52
2019-03-08T17:11:37.185Z,62.52
2019-03-08T17:12:37.329Z,62.52
2019-03-08T17:13:37.476Z,64.06
2019-03-08T17:14:37.609Z,64.09
2019-03-08T17:15:37.782Z,64.40
2019-03-08T17:16:37.982Z,64.71
2019-03-08T17:17:38.139Z,64.84
2019-03-08T17:18:38.309Z,64.81
2019-03-08T17:19:38.497Z,64.19
2019-03-08T17:20:38.662Z,64.02
2019-03-08T17:21:38.867Z,64.09
2019-03-08T17:22:40.564Z,62.54
2019-03-08T17:23:39.202Z,63.19
2019-03-08T17:24:39.385Z,63.57
2019-03-08T17:25:39.594Z,62.54
2019-03-08T17:26:39.769Z,64.40
2019-03-08T17:27:40.047Z,62.44
2019-03-08T17:28:41.107Z,63.60
2019-03-08T17:29:40.254Z,62.54
2019-03-08T17:30:40.446Z,63.37
2019-03-08T17:31:40.571Z,63.27
2019-03-08T17:32:40.733Z,63.47
2019-03-08T17:33:40.915Z,63.92
2019-03-08T17:34:41.090Z,63.71
2019-03-08T17:35:41.276Z,63.92
2019-03-08T17:36:41.470Z,64.12
2019-03-08T17:37:41.669Z,64.77
2019-03-08T17:38:41.889Z,64.25
2019-03-08T17:39:42.041Z,64.56
2019-03-08T17:40:42.279Z,64.04
2019-03-08T17:41:42.409Z,63.84
2019-03-08T17:42:42.577Z,63.95
2019-03-08T17:43:42.748Z,64.25
2019-03-08T17:44:42.900Z,64.46
2019-03-08T17:45:43.030Z,65.59
2019-03-08T17:46:43.207Z,64.28
2019-03-08T17:47:43.363Z,64.80
2019-03-08T17:48:43.573Z,65.08
2019-03-08T17:49:43.731Z,64.98
2019-03-08T17:50:43.911Z,64.87
2019-03-08T17:51:44.090Z,64.36
2019-03-08T17:52:44.245Z,65.28
2019-03-08T17:53:44.425Z,65.83
2019-03-08T17:54:44.626Z,64.46
2019-03-08T17:55:44.790Z,64.36
2019-03-08T17:56:44.941Z,64.87
2019-03-08T17:57:45.105Z,64.98
2019-03-08T17:58:45.289Z,64.25
2019-03-08T17:59:45.437Z,65.18
2019-03-08T18:00:45.609Z,64.25
2019-03-08T18:01:45.774Z,64.15
2019-03-08T18:02:45.963Z,64.87
2019-03-08T18:03:46.166Z,64.15
2019-03-08T18:04:46.339Z,64.98
2019-03-08T18:05:46.506Z,65.08
2019-03-08T18:06:46.728Z,65.91
2019-03-08T18:07:46.936Z,64.56
2019-03-08T18:08:47.137Z,65.18
2019-03-08T18:09:47.342Z,65.08
2019-03-08T18:10:47.531Z,65.49
2019-03-08T18:11:47.722Z,64.56
2019-03-08T18:12:47.879Z,64.67
2019-03-08T18:13:48.054Z,65.39
2019-03-08T18:14:48.263Z,65.28
2019-03-08T18:15:48.439Z,64.22
2019-03-08T18:16:48.617Z,64.95
2019-03-08T18:17:48.805Z,65.36
2019-03-08T18:18:48.993Z,64.32
2019-03-08T18:19:49.188Z,64.84
2019-03-08T18:20:49.362Z,64.74
2019-03-08T18:21:49.536Z,64.95
2019-03-08T18:22:49.718Z,64.43
2019-03-08T18:23:49.886Z,65.25
2019-03-08T18:24:50.130Z,64.32
2019-03-08T18:25:50.350Z,64.43
2019-03-08T18:26:50.560Z,64.50
2019-03-08T18:27:50.743Z,63.99
2019-03-08T18:28:50.903Z,64.61
2019-03-08T18:29:51.053Z,64.92
2019-03-08T18:30:51.278Z,63.89
2019-03-08T18:31:51.454Z,63.78
2019-03-08T18:32:51.607Z,65.95
2019-03-08T18:33:51.768Z,64.53
2019-03-08T18:34:51.935Z,64.50
2019-03-08T18:35:52.155Z,65.22
2019-03-08T18:36:52.238Z,65.88
2019-03-08T18:37:52.387Z,66.08
2019-03-08T18:38:52.570Z,65.33
2019-03-08T18:39:52.781Z,64.09
2019-03-08T18:40:52.917Z,64.89
2019-03-08T18:41:53.130Z,64.47
2019-03-08T18:42:53.277Z,65.09
2019-03-08T18:43:53.432Z,65.33
2019-03-08T18:44:53.595Z,65.74
2019-03-08T18:45:53.749Z,66.05
2019-03-08T18:46:53.950Z,66.97
2019-03-08T18:47:54.104Z,67.08
2019-03-08T18:48:54.291Z,68.35
2019-03-08T18:49:54.433Z,68.04
2019-03-08T18:50:54.623Z,69.48
2019-03-08T18:51:54.812Z,69.10
2019-03-08T18:52:54.976Z,69.00
2019-03-08T18:53:55.106Z,69.41
2019-03-08T18:54:55.271Z,69.93
2019-03-08T18:55:55.446Z,70.34
2019-03-08T18:56:55.628Z,70.54
2019-03-08T18:57:55.823Z,70.89
2019-03-08T18:58:55.978Z,70.86
2019-03-08T18:59:56.213Z,70.99
2019-03-08T19:00:56.388Z,72.02
2019-03-08T19:01:56.579Z,71.61
2019-03-08T19:02:56.771Z,72.23
2019-03-08T19:03:56.921Z,72.06
2019-03-08T19:04:57.104Z,72.23
2019-03-08T19:05:57.290Z,72.74
2019-03-08T19:06:57.480Z,73.60
2019-03-08T19:07:57.682Z,73.81
2019-03-08T19:08:57.799Z,73.50
2019-03-08T19:09:57.988Z,73.71
2019-03-08T19:10:58.158Z,73.91
2019-03-08T19:11:58.324Z,73.81
2019-03-08T19:12:58.523Z,74.26
2019-03-08T19:13:58.714Z,74.53
2019-03-08T19:14:59.890Z,74.84
2019-03-08T19:15:59.065Z,75.60
2019-03-08T19:16:59.248Z,75.46
2019-03-08T19:17:59.420Z,75.70
2019-03-08T19:18:59.615Z,75.67
2019-03-08T19:19:59.784Z,75.60
2019-03-08T19:20:59.956Z,75.70
2019-03-08T19:22:00.102Z,75.87
2019-03-08T19:23:00.361Z,75.67
2019-03-08T19:24:00.551Z,76.29
2019-03-08T19:25:00.709Z,76.08
2019-03-08T19:26:00.940Z,76.50
2019-03-08T19:27:01.135Z,76.64
2019-03-08T19:28:01.314Z,76.43
2019-03-08T19:29:01.491Z,76.43
2019-03-08T19:30:01.713Z,76.94
2019-03-08T19:31:01.871Z,76.73
2019-03-08T19:32:02.071Z,77.56
2019-03-08T19:33:02.276Z,77.04
2019-03-08T19:34:02.454Z,77.15
2019-03-08T19:35:02.727Z,77.01
2019-03-08T19:36:02.896Z,77.01
2019-03-08T19:37:03.045Z,76.81
2019-03-08T19:38:03.239Z,76.60
2019-03-08T19:39:03.412Z,76.94
2019-03-08T19:40:03.600Z,77.04
2019-03-08T19:41:03.799Z,77.11
2019-03-08T19:42:03.973Z,76.81
2019-03-08T19:43:04.154Z,76.90
2019-03-08T19:44:04.290Z,77.01
2019-03-08T19:45:04.448Z,76.81
2019-03-08T19:46:04.631Z,76.77
2019-03-08T19:47:05.155Z,76.70
2019-03-08T19:48:04.928Z,76.70
2019-03-08T19:49:05.106Z,75.74
2019-03-08T19:50:06.433Z,76.67
2019-03-08T19:51:05.481Z,76.35
2019-03-08T19:52:05.645Z,76.56
2019-03-08T19:53:05.897Z,76.67
2019-03-08T19:54:06.106Z,76.56
2019-03-08T19:55:06.300Z,76.46
2019-03-08T19:56:06.436Z,76.77
2019-03-08T19:57:06.611Z,76.25
2019-03-08T19:58:06.788Z,77.63
2019-03-08T19:59:07.961Z,78.14
2019-03-08T20:00:07.113Z,77.32
2019-03-08T20:01:07.290Z,78.14
2019-03-08T20:02:07.439Z,78.11
2019-03-08T20:03:07.630Z,77.73
2019-03-08T20:04:07.802Z,77.42
2019-03-08T20:05:07.957Z,77.42
2019-03-08T20:06:08.112Z,77.59
2019-03-08T20:07:08.269Z,77.84
2019-03-08T20:08:08.456Z,77.73
2019-03-08T20:09:08.582Z,77.94
2019-03-08T20:10:08.757Z,77.84
2019-03-08T20:11:08.898Z,77.70
2019-03-08T20:12:09.059Z,77.39
2019-03-08T20:13:09.243Z,77.73
2019-03-08T20:14:09.408Z,78.25
2019-03-08T20:15:09.559Z,78.11
2019-03-08T20:16:10.714Z,78.31
2019-03-08T20:17:09.878Z,77.94
2019-03-08T20:18:10.120Z,77.08
2019-03-08T20:19:10.205Z,77.63
2019-03-08T20:20:10.372Z,78.01
2019-03-08T20:21:10.558Z,77.80
2019-03-08T20:22:10.739Z,77.28
2019-03-08T20:23:11.046Z,77.59
2019-03-08T20:24:11.118Z,77.91
2019-03-08T20:25:11.296Z,77.80
2019-03-08T20:26:11.469Z,77.91
2019-03-08T20:27:11.649Z,78.42
2019-03-08T20:28:11.906Z,78.35
2019-03-08T20:29:12.073Z,77.39
2019-03-08T20:30:12.249Z,77.45
2019-03-08T20:31:12.409Z,76.87
2019-03-08T20:32:12.541Z,77.49
2019-03-08T20:33:12.742Z,77.39
2019-03-08T20:34:13.424Z,77.59
2019-03-08T20:35:14.153Z,76.98
2019-03-08T20:36:13.260Z,77.59
2019-03-08T20:37:13.419Z,77.28
2019-03-08T20:38:13.563Z,76.67
2019-03-08T20:39:15.807Z,77.80
2019-03-08T20:40:13.920Z,77.70
2019-03-08T20:41:14.079Z,77.59
2019-03-08T20:42:14.217Z,76.98
2019-03-08T20:43:14.369Z,76.73
2019-03-08T20:44:14.542Z,76.42
2019-03-08T20:45:14.743Z,75.91
2019-03-08T20:46:14.930Z,75.81
2019-03-08T20:47:15.137Z,75.81
2019-03-08T20:48:15.305Z,76.63
2019-03-08T20:49:15.526Z,76.46
2019-03-08T20:50:15.755Z,76.56
2019-03-08T20:51:15.949Z,75.39
2019-03-08T20:52:16.134Z,75.29
2019-03-08T20:53:16.300Z,74.88
2019-03-08T20:54:16.457Z,74.26
2019-03-08T20:55:16.626Z,74.46
2019-03-08T20:56:16.795Z,74.88
2019-03-08T20:57:16.988Z,74.05
2019-03-08T20:58:17.185Z,74.46
2019-03-08T20:59:17.397Z,74.67
2019-03-08T21:00:17.657Z,75.53
2019-03-08T21:01:17.836Z,75.29
2019-03-08T21:02:18.006Z,74.46
2019-03-08T21:03:18.183Z,74.26
2019-03-08T21:04:18.372Z,73.43
2019-03-08T21:05:18.595Z,74.46
2019-03-08T21:06:18.810Z,73.54
2019-03-08T21:07:19.010Z,73.85